Time;durP1;ratioP1;P1;durP2;ratioP2;P2;SDS_P1;SDS_P2;PMS_P1;PMS_P2;Temp;Humidity;BMP_temperature;BMP_pressure;BME280_temperature;BME280_humidity;BME280_pressure;Samples;Min_cycle;Max_cycle;Signal;HPM_P1;HPM_P2
2022/05/23 00:01:49;;;;;;;9.45;5.88;;;14.40;99.90;;;;;;5115745;28;20176;-71
2022/05/23 00:04:15;;;;;;;9.65;6.63;;;14.40;99.90;;;;;;5115806;28;20180;-71
2022/05/23 00:06:40;;;;;;;11.95;6.18;;;14.40;99.90;;;;;;5115681;28;20179;-71
2022/05/23 00:09:06;;;;;;;10.55;6.85;;;14.40;99.90;;;;;;5115544;28;20204;-71
2022/05/23 00:11:32;;;;;;;9.45;6.55;;;14.40;99.90;;;;;;5115557;28;20188;-71
2022/05/23 00:13:58;;;;;;;12.98;6.43;;;14.30;99.90;;;;;;5097157;28;20195;-71
2022/05/23 00:16:33;;;;;;;11.43;6.63;;;14.30;99.90;;;;;;5097506;28;20525;-71
2022/05/23 00:18:59;;;;;;;8.73;6.13;;;14.30;99.90;;;;;;5097068;28;20278;-71
2022/05/23 00:21:25;;;;;;;10.90;6.65;;;14.40;99.90;;;;;;5115064;28;20226;-71
2022/05/23 00:23:51;;;;;;;9.40;6.88;;;14.40;99.90;;;;;;5116177;28;20529;-71
2022/05/23 00:26:20;;;;;;;11.70;7.07;;;14.50;99.90;;;;;;5115139;28;20180;-71
2022/05/23 00:28:46;;;;;;;7.88;6.30;;;14.50;99.90;;;;;;5115228;28;20673;-71
2022/05/23 00:31:12;;;;;;;9.32;6.35;;;14.50;99.90;;;;;;5115517;28;20565;-71
2022/05/23 00:36:31;;;;;;;8.98;6.82;;;14.50;99.90;;;;;;5115391;28;20536;-70
2022/05/23 00:38:57;;;;;;;10.80;6.38;;;14.60;99.90;;;;;;5096745;28;20199;-71
2022/05/23 00:44:30;;;;;;;15.55;6.72;;;14.70;99.90;;;;;;5115313;28;20155;-71
2022/05/23 00:47:04;;;;;;;8.80;6.38;;;14.60;99.90;;;;;;5115401;28;20148;-71
2022/05/23 00:49:33;;;;;;;10.20;6.60;;;14.50;99.90;;;;;;5096343;28;20222;-71
2022/05/23 00:52:03;;;;;;;9.77;6.45;;;14.30;99.90;;;;;;5096506;28;20206;-71
2022/05/23 00:54:42;;;;;;;10.52;6.47;;;14.20;99.90;;;;;;5114676;28;20598;-70
2022/05/23 00:57:17;;;;;;;8.77;6.90;;;14.20;99.90;;;;;;5115053;28;20163;-70
2022/05/23 00:59:44;;;;;;;10.32;7.10;;;14.20;99.90;;;;;;5114373;28;20591;-71
2022/05/23 01:02:12;;;;;;;11.88;7.25;;;14.10;99.90;;;;;;5096176;28;20188;-71
2022/05/23 01:04:38;;;;;;;11.70;7.35;;;14.10;99.90;;;;;;5114367;28;20167;-70
2022/05/23 01:07:04;;;;;;;12.02;6.85;;;14.00;99.90;;;;;;5096119;28;20187;-70
2022/05/23 01:09:30;;;;;;;10.70;6.90;;;14.10;99.90;;;;;;5114099;28;20236;-71
2022/05/23 01:11:56;;;;;;;8.52;7.10;;;14.10;99.90;;;;;;5114321;28;20223;-71
2022/05/23 01:14:22;;;;;;;10.45;6.97;;;14.10;99.90;;;;;;5114188;28;20187;-71
2022/05/23 01:16:48;;;;;;;9.70;7.00;;;14.20;99.90;;;;;;5095922;28;20177;-71
2022/05/23 01:19:14;;;;;;;10.02;6.88;;;14.20;99.90;;;;;;5114128;28;20273;-71
2022/05/23 01:22:29;;;;;;;10.52;7.10;;;14.20;99.90;;;;;;5095892;28;20180;-71
2022/05/23 01:25:12;;;;;;;11.57;6.72;;;14.30;99.90;;;;;;5089019;28;20185;-70
2022/05/23 01:27:40;;;;;;;9.77;6.70;;;14.30;99.90;;;;;;5114054;28;20652;-71
2022/05/23 01:30:06;;;;;;;10.55;7.00;;;14.40;99.90;;;;;;5114064;28;20173;-70
2022/05/23 01:32:32;;;;;;;11.30;6.75;;;14.40;99.90;;;;;;5095147;28;20197;-71
2022/05/23 01:34:58;;;;;;;10.05;6.70;;;14.30;99.90;;;;;;5114010;28;20169;-71
2022/05/23 01:37:24;;;;;;;11.35;6.65;;;14.40;99.90;;;;;;5113945;28;20179;-71
2022/05/23 01:39:50;;;;;;;9.65;6.78;;;14.40;99.90;;;;;;5114012;28;20172;-71
2022/05/23 01:42:16;;;;;;;8.30;6.55;;;14.50;99.90;;;;;;5114017;28;20217;-70
2022/05/23 01:44:41;;;;;;;9.43;6.60;;;14.50;99.90;;;;;;5095672;28;20172;-70
2022/05/23 01:47:13;;;;;;;9.43;6.68;;;14.50;99.90;;;;;;5113950;28;20176;-71
2022/05/23 01:49:41;;;;;;;10.02;6.80;;;14.40;99.90;;;;;;5114171;28;20236;-71
2022/05/23 01:52:08;;;;;;;9.35;6.90;;;14.50;99.90;;;;;;5113860;28;20673;-70
2022/05/23 01:54:35;;;;;;;7.90;6.60;;;14.50;99.90;;;;;;5114025;28;20179;-70
2022/05/23 01:57:02;;;;;;;9.25;6.63;;;14.50;99.90;;;;;;5113779;28;20168;-71
2022/05/23 02:02:12;;;;;;;9.27;6.88;;;14.50;99.90;;;;;;5114127;28;20200;-71
2022/05/23 02:04:38;;;;;;;11.57;6.80;;;14.50;99.90;;;;;;5113669;28;20180;-71
2022/05/23 02:07:05;;;;;;;9.68;6.38;;;14.50;99.90;;;;;;5113850;28;20172;-70
2022/05/23 02:09:31;;;;;;;9.13;6.93;;;14.50;99.90;;;;;;5113506;28;20669;-71
2022/05/23 02:11:57;;;;;;;10.20;6.30;;;14.50;99.90;;;;;;5113843;28;20620;-69
2022/05/23 02:14:23;;;;;;;8.27;6.28;;;14.50;99.90;;;;;;5113488;28;20256;-68
2022/05/23 02:16:49;;;;;;;8.07;6.72;;;14.50;99.90;;;;;;5113584;28;20629;-69
2022/05/23 02:19:15;;;;;;;9.38;6.47;;;14.50;99.90;;;;;;5113754;28;20554;-69
2022/05/23 02:21:40;;;;;;;11.27;6.80;;;14.50;99.90;;;;;;5113933;28;20212;-69
2022/05/23 02:24:06;;;;;;;10.38;6.25;;;14.50;99.90;;;;;;5095356;28;20176;-69
2022/05/23 02:26:33;;;;;;;14.10;7.18;;;14.50;99.90;;;;;;5113342;28;20172;-69
2022/05/23 02:28:59;;;;;;;12.60;7.13;;;14.50;99.90;;;;;;5095207;28;20246;-69
2022/05/23 02:31:26;;;;;;;9.77;6.63;;;14.50;99.90;;;;;;5113952;28;20196;-69
2022/05/23 02:33:51;;;;;;;9.85;6.40;;;14.50;99.90;;;;;;5113733;28;20164;-69
2022/05/23 02:36:17;;;;;;;9.77;6.20;;;14.50;99.90;;;;;;5113544;28;20183;-69
2022/05/23 02:38:43;;;;;;;10.38;6.68;;;14.50;99.90;;;;;;5113287;28;20206;-69
2022/05/23 02:41:09;;;;;;;10.73;6.18;;;14.50;99.90;;;;;;5113289;28;20172;-71
2022/05/23 02:43:34;;;;;;;8.10;6.68;;;14.40;99.90;;;;;;5113608;28;20219;-69
2022/05/23 02:46:00;;;;;;;11.57;7.32;;;14.40;99.90;;;;;;5117725;28;20184;-69
2022/05/23 02:48:26;;;;;;;10.52;7.28;;;14.40;99.90;;;;;;5117039;28;20200;-69
2022/05/23 02:50:52;;;;;;;7.80;6.68;;;14.50;99.90;;;;;;5098634;28;20687;-69
2022/05/23 02:53:17;;;;;;;9.35;6.65;;;14.50;99.90;;;;;;5117290;28;20176;-69
2022/05/23 02:55:44;;;;;;;12.88;6.50;;;14.40;99.90;;;;;;5116993;28;20163;-68
2022/05/23 02:58:10;;;;;;;8.38;6.00;;;14.40;99.90;;;;;;5098427;28;20195;-69
2022/05/23 03:00:37;;;;;;;8.52;6.07;;;14.40;99.90;;;;;;5116894;28;20176;-69
2022/05/23 03:03:04;;;;;;;9.02;6.38;;;14.40;99.90;;;;;;5117100;28;20237;-69
2022/05/23 03:05:32;;;;;;;10.48;6.88;;;14.40;99.90;;;;;;5116714;28;20176;-69
2022/05/23 03:07:59;;;;;;;10.50;6.00;;;14.40;99.90;;;;;;5116552;28;20208;-70
2022/05/23 03:10:25;;;;;;;9.65;6.53;;;14.40;99.90;;;;;;5116518;28;20237;-69
2022/05/23 03:12:52;;;;;;;6.95;6.25;;;14.30;99.90;;;;;;5116342;28;20741;-69
2022/05/23 03:15:18;;;;;;;9.23;6.30;;;14.30;99.90;;;;;;5117182;28;20644;-69
2022/05/23 03:17:43;;;;;;;10.07;6.40;;;14.30;99.90;;;;;;5116819;28;20590;-69
2022/05/23 03:20:10;;;;;;;10.02;7.10;;;14.20;99.90;;;;;;5116384;28;20165;-68
2022/05/23 03:28:05;;;;;;;11.18;6.70;;;14.30;99.90;;;;;;5116588;28;20195;-69
2022/05/23 03:30:32;;;;;;;7.25;6.55;;;14.30;99.90;;;;;;5116126;28;20168;-69
2022/05/23 03:32:58;;;;;;;8.40;6.20;;;14.30;99.90;;;;;;5097908;28;20184;-69
2022/05/23 03:35:26;;;;;;;8.80;5.72;;;14.30;99.90;;;;;;5116421;28;20169;-69
2022/05/23 03:37:52;;;;;;;6.57;5.75;;;14.40;99.90;;;;;;5116296;28;20541;-69
2022/05/23 03:40:18;;;;;;;7.88;6.00;;;14.40;99.90;;;;;;5115875;28;20298;-69
2022/05/23 03:42:44;;;;;;;6.10;5.15;;;14.40;99.90;;;;;;5116420;28;20164;-69
2022/05/23 03:45:10;;;;;;;10.90;5.95;;;14.50;99.90;;;;;;5097768;28;20663;-69
2022/05/23 03:47:36;;;;;;;7.20;5.43;;;14.50;99.90;;;;;;5115749;28;20188;-69
2022/05/23 03:50:03;;;;;;;6.50;5.35;;;14.50;99.90;;;;;;5115854;28;20548;-68
2022/05/23 03:52:28;;;;;;;7.88;5.45;;;14.50;99.90;;;;;;5115570;28;20197;-69
2022/05/23 03:54:54;;;;;;;7.50;4.93;;;14.60;99.90;;;;;;5115568;28;20173;-70
2022/05/23 03:57:23;;;;;;;8.27;5.60;;;14.60;99.90;;;;;;5115640;28;20168;-70
2022/05/23 03:59:49;;;;;;;5.53;4.93;;;14.60;99.90;;;;;;5115978;28;20656;-69
2022/05/23 04:02:15;;;;;;;9.38;4.95;;;14.60;99.90;;;;;;5115609;28;20637;-69
2022/05/23 04:04:40;;;;;;;11.23;5.45;;;14.70;99.90;;;;;;5115612;28;20202;-69
2022/05/23 04:07:07;;;;;;;5.13;4.63;;;14.70;99.90;;;;;;5116171;28;20177;-69
2022/05/23 04:09:33;;;;;;;7.05;5.53;;;14.80;99.90;;;;;;5115419;28;20673;-69
2022/05/23 04:11:59;;;;;;;7.68;5.40;;;14.80;99.90;;;;;;5097071;28;20609;-69
2022/05/23 04:14:26;;;;;;;6.22;4.95;;;14.80;99.90;;;;;;5115413;28;20184;-69
2022/05/23 04:16:53;;;;;;;9.98;5.28;;;14.90;99.90;;;;;;5097031;28;20675;-69
2022/05/23 04:19:19;;;;;;;5.18;4.53;;;14.90;99.90;;;;;;5115373;28;20199;-69
2022/05/23 04:21:46;;;;;;;6.72;4.78;;;14.90;99.90;;;;;;5115423;28;20667;-69
2022/05/23 04:24:15;;;;;;;7.82;4.65;;;14.90;99.90;;;;;;5115278;28;20236;-69
2022/05/23 04:26:41;;;;;;;6.72;4.60;;;15.00;99.90;;;;;;5096960;28;20180;-69
2022/05/23 04:29:07;;;;;;;6.82;4.90;;;15.00;99.90;;;;;;5116295;28;20207;-69
2022/05/23 04:31:35;;;;;;;7.20;4.63;;;15.00;99.90;;;;;;5115524;28;20283;-69
2022/05/23 04:36:46;;;;;;;5.05;4.20;;;15.00;99.90;;;;;;5115702;28;20238;-69
2022/05/23 04:39:12;;;;;;;5.03;4.50;;;15.00;99.90;;;;;;5114978;28;20204;-69
2022/05/23 04:41:38;;;;;;;7.32;4.32;;;15.10;99.90;;;;;;5114958;28;20175;-69
2022/05/23 04:44:04;;;;;;;6.85;4.63;;;15.10;99.90;;;;;;5115181;28;20178;-69
2022/05/23 04:46:30;;;;;;;6.68;4.53;;;15.10;99.90;;;;;;5096593;28;20183;-72
2022/05/23 04:51:40;;;;;;;6.25;4.68;;;15.20;99.90;;;;;;5115271;28;20202;-70
2022/05/23 04:54:07;;;;;;;7.55;4.35;;;15.20;99.90;;;;;;5115306;28;20534;-70
2022/05/23 04:56:33;;;;;;;4.85;4.15;;;15.30;99.90;;;;;;5096429;28;20176;-71
2022/05/23 04:58:59;;;;;;;5.95;4.70;;;15.30;99.90;;;;;;5114969;28;20194;-71
2022/05/23 05:01:26;;;;;;;7.13;4.60;;;15.30;99.90;;;;;;5096757;28;20172;-71
2022/05/23 05:03:57;;;;;;;5.70;4.90;;;15.40;99.90;;;;;;5115132;28;20177;-70
2022/05/23 05:06:24;;;;;;;4.75;3.85;;;15.40;99.90;;;;;;5115104;28;20191;-70
2022/05/23 05:08:50;;;;;;;5.00;4.45;;;15.50;99.90;;;;;;5113858;28;20200;-70
2022/05/23 05:11:16;;;;;;;4.80;4.28;;;15.60;99.90;;;;;;5096796;28;20200;-71
2022/05/23 05:13:43;;;;;;;7.15;4.75;;;15.60;99.90;;;;;;5114817;28;20184;-71
2022/05/23 05:16:09;;;;;;;5.93;4.20;;;15.70;99.90;;;;;;5115401;28;20173;-71
2022/05/23 05:18:35;;;;;;;5.25;4.70;;;15.70;99.90;;;;;;5096729;28;20195;-71
2022/05/23 05:21:09;;;;;;;5.18;3.90;;;15.80;99.90;;;;;;5115277;28;20176;-70
2022/05/23 05:23:35;;;;;;;5.43;3.85;;;15.80;99.90;;;;;;5115614;28;20161;-70
2022/05/23 05:26:02;;;;;;;6.53;3.90;;;15.90;99.90;;;;;;5114955;28;20612;-71
2022/05/23 05:28:29;;;;;;;4.90;3.92;;;16.00;99.90;;;;;;5096851;28;20257;-71
2022/05/23 05:31:14;;;;;;;4.63;4.15;;;16.00;99.90;;;;;;5096498;28;20291;-71
2022/05/23 05:33:45;;;;;;;5.25;4.10;;;16.10;99.90;;;;;;5115736;28;20655;-70
2022/05/23 05:36:16;;;;;;;6.15;4.30;;;16.10;99.90;;;;;;5116280;28;20288;-70
2022/05/23 05:38:51;;;;;;;5.35;4.13;;;16.20;99.90;;;;;;5097566;28;20627;-71
2022/05/23 05:41:28;;;;;;;6.35;4.25;;;16.30;99.90;;;;;;5096820;28;20175;-71
2022/05/23 05:44:05;;;;;;;6.15;4.05;;;16.40;99.90;;;;;;5115394;28;20160;-70
2022/05/23 05:46:39;;;;;;;5.22;4.28;;;16.50;99.90;;;;;;5115417;28;20156;-71
2022/05/23 05:49:08;;;;;;;5.25;3.92;;;16.60;99.90;;;;;;5096866;28;20284;-71
2022/05/23 05:51:36;;;;;;;6.20;4.13;;;16.70;99.90;;;;;;5114764;28;20200;-71
2022/05/23 05:54:04;;;;;;;5.32;3.72;;;16.80;99.90;;;;;;5114916;28;20165;-71
2022/05/23 05:56:30;;;;;;;5.75;4.22;;;16.90;99.90;;;;;;5114586;28;20226;-71
2022/05/23 05:58:56;;;;;;;6.22;3.95;;;16.90;99.90;;;;;;5097429;28;20657;-74
2022/05/23 06:01:21;;;;;;;5.05;3.63;;;17.00;99.90;;;;;;5115670;28;20778;-72
2022/05/23 06:03:47;;;;;;;6.90;4.13;;;17.10;99.90;;;;;;5115269;28;20180;-69
2022/05/23 06:11:41;;;;;;;6.38;4.72;;;17.30;99.90;;;;;;5114230;28;20304;-71
2022/05/23 06:14:07;;;;;;;8.88;5.00;;;17.30;99.90;;;;;;5114405;28;20197;-69
2022/05/23 06:16:35;;;;;;;4.55;3.90;;;17.40;99.90;;;;;;5114364;28;20196;-69
2022/05/23 06:19:01;;;;;;;6.80;3.90;;;17.50;99.90;;;;;;5096777;28;20193;-69
2022/05/23 06:21:28;;;;;;;6.25;3.80;;;17.50;99.90;;;;;;5099616;28;20641;-69
2022/05/23 06:23:54;;;;;;;7.13;4.55;;;17.60;99.90;;;;;;5099634;28;20187;-69
2022/05/23 06:26:23;;;;;;;8.70;3.90;;;17.60;99.90;;;;;;5117814;28;20170;-69
2022/05/23 06:28:50;;;;;;;6.78;4.30;;;17.70;99.90;;;;;;5099557;28;20283;-69
2022/05/23 06:31:16;;;;;;;10.23;4.88;;;17.70;99.90;;;;;;5099431;28;20245;-69
2022/05/23 06:33:42;;;;;;;6.32;3.92;;;17.80;99.90;;;;;;5118152;28;20183;-69
2022/05/23 06:36:09;;;;;;;5.60;4.00;;;17.90;99.90;;;;;;5117683;28;20172;-69
2022/05/23 06:38:37;;;;;;;6.82;3.67;;;18.00;99.90;;;;;;5117712;28;20192;-68
2022/05/23 06:41:06;;;;;;;12.27;5.13;;;18.10;99.90;;;;;;5117667;28;20167;-69
2022/05/23 06:43:32;;;;;;;10.90;4.65;;;18.20;99.90;;;;;;5117576;28;20173;-69
2022/05/23 06:45:59;;;;;;;5.75;4.07;;;18.30;99.90;;;;;;5117789;28;20184;-69
2022/05/23 06:48:26;;;;;;;5.10;3.72;;;18.40;99.90;;;;;;5117534;28;20196;-69
2022/05/23 06:50:52;;;;;;;5.80;3.47;;;18.50;99.90;;;;;;5117978;28;20184;-69
2022/05/23 06:53:19;;;;;;;7.70;3.28;;;18.60;99.90;;;;;;5117597;28;20202;-69
2022/05/23 06:55:45;;;;;;;3.97;3.25;;;18.70;99.90;;;;;;5117037;28;20164;-69
2022/05/23 06:58:11;;;;;;;6.57;3.72;;;18.90;99.90;;;;;;5098894;28;20219;-70
2022/05/23 07:00:38;;;;;;;4.95;3.55;;;19.00;99.90;;;;;;5117051;28;20614;-70
2022/05/23 07:03:05;;;;;;;4.82;3.13;;;19.10;99.90;;;;;;5117202;28;20583;-70
2022/05/23 07:13:47;;;;;;;4.88;3.28;;;19.60;99.90;;;;;;5117235;28;20233;-70
2022/05/23 07:16:14;;;;;;;3.72;3.10;;;19.80;99.90;;;;;;5098715;28;20275;-70
2022/05/23 07:18:39;;;;;;;7.70;3.40;;;20.00;99.90;;;;;;5098653;28;20219;-70
2022/05/23 07:21:07;;;;;;;5.70;3.20;;;20.10;99.90;;;;;;5098790;28;20667;-70
2022/05/23 07:23:37;;;;;;;4.85;3.17;;;20.20;99.90;;;;;;5098337;28;20187;-70
2022/05/23 07:26:08;;;;;;;4.40;3.28;;;20.30;99.90;;;;;;5116726;28;20640;-70
2022/05/23 07:28:35;;;;;;;5.15;3.42;;;20.30;99.90;;;;;;5117234;28;20242;-70
2022/05/23 07:31:02;;;;;;;4.22;3.03;;;20.30;99.90;;;;;;5115853;28;20199;-70
2022/05/23 07:33:28;;;;;;;5.07;3.13;;;20.30;99.90;;;;;;5117574;28;20659;-70
2022/05/23 07:35:59;;;;;;;5.43;3.38;;;20.40;99.90;;;;;;5117315;28;20222;-70
2022/05/23 07:38:25;;;;;;;3.60;2.95;;;20.40;99.90;;;;;;5092019;28;20207;-70
2022/05/23 07:40:52;;;;;;;3.78;2.78;;;20.50;99.90;;;;;;5097899;28;20173;-70
2022/05/23 07:43:18;;;;;;;3.50;3.20;;;20.60;99.90;;;;;;5096850;28;20173;-69
2022/05/23 07:45:45;;;;;;;7.40;3.20;;;20.70;99.90;;;;;;5096227;28;20625;-69
2022/05/23 07:48:11;;;;;;;4.70;3.15;;;20.80;99.90;;;;;;5097512;28;20201;-70
2022/05/23 07:50:37;;;;;;;3.78;3.10;;;20.90;99.90;;;;;;5097849;28;20638;-70
2022/05/23 08:01:16;;;;;;;3.60;2.83;;;21.40;99.90;;;;;;5096279;28;20636;-70
2022/05/23 08:03:42;;;;;;;3.75;3.03;;;21.50;99.90;;;;;;5095674;28;20260;-70
2022/05/23 08:06:09;;;;;;;4.15;3.00;;;21.50;99.90;;;;;;5095998;28;20184;-71
2022/05/23 08:08:35;;;;;;;4.03;2.72;;;21.50;99.90;;;;;;5105625;28;20644;-71
2022/05/23 08:11:01;;;;;;;3.33;2.83;;;21.50;99.90;;;;;;5115923;28;20192;-71
2022/05/23 08:13:27;;;;;;;4.95;2.97;;;21.40;99.90;;;;;;5115716;28;20302;-71
2022/05/23 08:15:53;;;;;;;6.70;3.42;;;21.20;99.90;;;;;;5116006;28;20168;-70
2022/05/23 08:18:18;;;;;;;7.75;3.20;;;21.20;99.90;;;;;;5115506;28;20198;-70
2022/05/23 08:20:44;;;;;;;3.53;2.90;;;21.20;99.90;;;;;;5115579;28;20172;-70
2022/05/23 08:23:10;;;;;;;7.07;2.83;;;21.10;99.90;;;;;;5097071;28;20649;-70
2022/05/23 08:25:37;;;;;;;5.70;2.78;;;21.10;99.90;;;;;;5115598;28;20180;-70
2022/05/23 08:28:03;;;;;;;5.72;2.88;;;21.00;99.90;;;;;;5097080;28;20274;-71
2022/05/23 08:30:29;;;;;;;6.00;2.72;;;21.00;99.90;;;;;;5115405;28;20247;-70
2022/05/23 08:32:55;;;;;;;3.65;2.83;;;21.00;99.90;;;;;;5115092;28;20267;-70
2022/05/23 08:35:23;;;;;;;5.68;2.95;;;21.00;99.90;;;;;;5115196;28;20238;-70
2022/05/23 08:37:48;;;;;;;4.53;2.85;;;21.10;99.90;;;;;;5114780;28;20196;-70
2022/05/23 08:40:14;;;;;;;5.97;3.28;;;21.20;99.90;;;;;;5115069;28;20169;-70
2022/05/23 08:42:55;;;;;;;5.38;3.00;;;21.20;99.90;;;;;;5114538;28;20621;-70
2022/05/23 08:45:35;;;;;;;4.93;3.13;;;21.20;99.90;;;;;;5096567;28;20226;-70
2022/05/23 08:48:07;;;;;;;5.15;3.17;;;21.10;99.90;;;;;;5115061;28;20199;-70
2022/05/23 08:50:54;;;;;;;4.88;2.72;;;21.10;99.90;;;;;;5114763;28;20167;-70
2022/05/23 08:53:27;;;;;;;5.50;3.45;;;21.10;99.90;;;;;;5115078;28;20159;-70
2022/05/23 08:55:58;;;;;;;6.35;3.10;;;21.10;99.90;;;;;;5114826;28;20153;-70
2022/05/23 08:58:48;;;;;;;6.60;3.60;;;21.10;99.90;;;;;;5114769;28;20552;-70
2022/05/23 09:01:31;;;;;;;3.35;2.80;;;21.20;99.90;;;;;;5096321;28;20263;-70
2022/05/23 09:04:16;;;;;;;5.70;3.03;;;21.40;99.90;;;;;;5114571;28;20160;-70
2022/05/23 09:06:49;;;;;;;5.97;3.20;;;21.60;99.90;;;;;;5114493;28;20153;-70
2022/05/23 09:09:21;;;;;;;3.92;2.67;;;21.70;99.90;;;;;;5096031;28;20211;-70
2022/05/23 09:11:50;;;;;;;3.35;3.05;;;21.80;99.90;;;;;;5095852;28;20192;-70
2022/05/23 09:14:25;;;;;;;3.40;2.53;;;22.00;99.90;;;;;;5115065;28;20215;-70
2022/05/23 09:16:54;;;;;;;3.63;2.83;;;22.20;99.90;;;;;;5095922;28;20172;-70
2022/05/23 09:19:39;;;;;;;5.85;3.00;;;22.50;99.90;;;;;;5095928;28;20188;-70
2022/05/23 09:22:38;;;;;;;6.75;3.30;;;22.70;99.90;;;;;;5114451;28;20656;-70
2022/05/23 09:25:06;;;;;;;6.78;3.45;;;23.10;99.90;;;;;;5097355;28;20179;-70
2022/05/23 09:27:43;;;;;;;6.32;3.00;;;23.30;99.90;;;;;;5078287;28;20207;-70
2022/05/23 09:30:12;;;;;;;5.20;3.25;;;23.30;99.90;;;;;;5114493;28;20243;-70
2022/05/23 09:32:49;;;;;;;4.38;3.13;;;23.20;99.90;;;;;;5114220;28;20574;-70
2022/05/23 09:35:25;;;;;;;4.15;3.13;;;23.10;99.90;;;;;;5095870;28;20174;-70
2022/05/23 09:38:17;;;;;;;5.78;2.80;;;23.00;99.90;;;;;;5096012;28;20698;-70
2022/05/23 09:40:44;;;;;;;3.58;2.70;;;22.90;99.90;;;;;;5095825;28;20184;-70
2022/05/23 09:49:14;;;;;;;4.70;2.90;;;23.20;99.90;;;;;;5114172;28;20245;-70
2022/05/23 09:52:16;;;;;;;3.78;2.95;;;23.50;99.90;;;;;;5095782;28;20196;-70
2022/05/23 09:55:06;;;;;;;6.30;2.47;;;23.70;99.90;;;;;;5098036;28;20271;-70
2022/05/23 09:58:04;;;;;;;4.55;2.95;;;23.70;99.90;;;;;;5099545;28;20179;-71
2022/05/23 10:01:01;;;;;;;2.88;2.17;;;23.90;99.90;;;;;;5075850;28;20176;-70
2022/05/23 10:03:33;;;;;;;4.15;2.40;;;23.90;99.90;;;;;;5118222;28;20149;-69
2022/05/23 10:06:13;;;;;;;3.95;2.60;;;24.00;99.90;;;;;;5099405;28;20526;-69
2022/05/23 10:08:43;;;;;;;2.40;2.20;;;24.20;99.90;;;;;;5117738;28;20279;-69
2022/05/23 10:11:26;;;;;;;4.25;2.53;;;24.60;99.90;;;;;;5098880;28;20208;-70
2022/05/23 10:14:06;;;;;;;2.58;2.30;;;24.50;99.90;;;;;;5099684;28;20204;-72
2022/05/23 10:16:57;;;;;;;4.53;2.47;;;24.60;99.90;;;;;;5117780;28;20180;-71
2022/05/23 10:19:35;;;;;;;2.97;2.20;;;24.60;99.90;;;;;;5099398;28;20200;-70
2022/05/23 10:22:23;;;;;;;5.50;2.70;;;24.80;99.90;;;;;;5099832;28;20249;-70
2022/05/23 10:24:59;;;;;;;4.38;2.33;;;24.70;99.90;;;;;;5118588;28;20157;-71
2022/05/23 10:27:53;;;;;;;3.00;2.33;;;24.60;99.90;;;;;;5117899;28;20156;-72
2022/05/23 10:30:22;;;;;;;3.00;2.15;;;24.60;99.90;;;;;;5073840;28;20683;-71
2022/05/23 10:32:52;;;;;;;3.88;2.35;;;24.60;99.90;;;;;;5100109;28;20257;-70
2022/05/23 10:35:32;;;;;;;2.53;2.20;;;24.70;99.90;;;;;;5099358;28;20763;-71
2022/05/23 10:42:07;;;;;;;5.10;2.50;;;24.80;99.90;;;;;;5117725;28;20734;-71
2022/05/23 10:44:06;;;;;;;5.03;2.88;;;24.30;99.90;;;;;;5117961;28;20180;-71
2022/05/23 10:46:36;;;;;;;7.82;2.45;;;24.10;99.90;;;;;;5104240;28;20224;-71
2022/05/23 10:49:26;;;;;;;7.93;2.95;;;24.00;99.90;;;;;;5117334;28;20199;-71
2022/05/23 10:52:06;;;;;;;2.20;2.00;;;24.00;99.90;;;;;;5099142;28;20262;-71
2022/05/23 10:55:11;;;;;;;8.80;2.95;;;24.00;99.90;;;;;;5117617;28;20186;-71
2022/05/23 10:57:57;;;;;;;6.03;2.20;;;24.10;99.90;;;;;;5117220;28;20189;-71
2022/05/23 11:01:02;;;;;;;4.13;2.25;;;24.30;99.90;;;;;;5117504;28;20199;-71
2022/05/23 11:03:33;;;;;;;4.22;2.05;;;24.60;99.90;;;;;;5102897;28;20267;-72
2022/05/23 11:06:07;;;;;;;3.42;1.85;;;25.10;99.90;;;;;;5097633;28;20585;-72
2022/05/23 11:08:36;;;;;;;8.98;2.22;;;25.30;99.90;;;;;;5098846;28;20242;-72
2022/05/23 11:11:17;;;;;;;4.53;2.50;;;25.50;99.90;;;;;;5117399;28;20676;-72
2022/05/23 11:13:51;;;;;;;6.68;2.53;;;25.60;99.90;;;;;;5117415;28;20194;-72
2022/05/23 11:16:42;;;;;;;5.85;2.30;;;25.60;99.90;;;;;;5117292;28;20152;-72
2022/05/23 11:19:29;;;;;;;5.22;2.38;;;25.60;99.90;;;;;;5116852;28;20188;-73
2022/05/23 11:22:19;;;;;;;3.25;2.30;;;25.80;99.90;;;;;;5117057;28;20168;-72
2022/05/23 11:24:57;;;;;;;3.65;1.92;;;26.00;99.90;;;;;;5116980;28;20177;-72
2022/05/23 11:35:48;;;;;;;4.80;2.35;;;26.40;99.90;;;;;;5117293;28;20183;-72
2022/05/23 11:38:17;;;;;;;2.95;2.03;;;26.30;99.90;;;;;;5119446;28;20192;-74
2022/05/23 11:40:57;;;;;;;4.95;2.15;;;26.40;99.90;;;;;;5118472;28;20171;-72
2022/05/23 11:43:24;;;;;;;7.90;2.42;;;26.40;99.90;;;;;;5117787;28;20157;-72
2022/05/23 11:46:05;;;;;;;4.00;2.03;;;26.40;99.90;;;;;;5120423;28;20149;-72
2022/05/23 11:48:40;;;;;;;4.03;2.20;;;26.50;99.90;;;;;;5117371;28;20211;-72
2022/05/23 11:51:14;;;;;;;5.13;2.10;;;26.60;99.90;;;;;;5098355;28;20195;-72
2022/05/23 11:54:03;;;;;;;5.32;2.67;;;26.70;99.90;;;;;;5116336;28;20164;-70
2022/05/23 11:56:43;;;;;;;5.15;2.80;;;26.70;99.90;;;;;;5116399;28;20179;-69
2022/05/23 11:59:29;;;;;;;4.00;2.05;;;26.90;99.90;;;;;;5116613;28;20184;-70
2022/05/23 12:02:07;;;;;;;4.63;2.28;;;27.10;99.90;;;;;;5098580;28;20176;-71
2022/05/23 12:04:52;;;;;;;3.95;1.98;;;27.40;99.90;;;;;;5098003;28;20545;-72
2022/05/23 12:07:41;;;;;;;4.22;2.40;;;27.70;99.90;;;;;;5116041;28;20195;-71
2022/05/23 12:10:22;;;;;;;7.55;2.65;;;27.70;99.90;;;;;;5117229;28;20157;-71
2022/05/23 12:12:52;;;;;;;6.22;2.35;;;27.10;99.90;;;;;;5117799;28;20192;-71
2022/05/23 12:15:43;;;;;;;3.42;2.20;;;27.00;99.90;;;;;;5100227;28;20559;-72
2022/05/23 12:18:13;;;;;;;6.03;2.90;;;26.80;99.90;;;;;;5098701;28;20342;-71
2022/05/23 12:20:47;;;;;;;5.15;2.50;;;26.70;99.90;;;;;;5117053;28;20169;-72
2022/05/23 12:23:29;;;;;;;4.38;2.50;;;26.90;99.90;;;;;;5098190;28;20648;-71
2022/05/23 12:26:12;;;;;;;5.55;2.33;;;26.90;99.90;;;;;;5097809;28;20264;-71
2022/05/23 12:28:58;;;;;;;6.63;2.97;;;27.10;99.90;;;;;;5115499;28;20194;-71
2022/05/23 12:31:29;;;;;;;6.18;2.53;;;27.20;99.90;;;;;;5115687;28;20300;-71
2022/05/23 12:34:08;;;;;;;4.53;2.58;;;27.50;99.90;;;;;;5115888;28;20149;-71
2022/05/23 12:36:47;;;;;;;5.68;2.90;;;27.80;99.90;;;;;;5116057;28;20163;-71
2022/05/23 12:39:29;;;;;;;7.28;2.85;;;28.10;99.90;;;;;;5115419;28;20258;-72
2022/05/23 12:42:06;;;;;;;7.28;2.83;;;28.10;99.90;;;;;;5115055;28;20160;-71
2022/05/23 12:44:52;;;;;;;4.88;2.58;;;27.80;99.90;;;;;;5096783;28;20654;-71
2022/05/23 12:47:36;;;;;;;3.88;2.58;;;27.80;99.90;;;;;;5115302;28;20165;-72
2022/05/23 12:50:33;;;;;;;3.67;2.30;;;27.60;99.90;;;;;;5114963;28;20213;-71
2022/05/23 12:53:07;;;;;;;4.20;2.30;;;27.40;99.90;;;;;;5115236;28;20244;-71
2022/05/23 12:56:00;;;;;;;6.28;2.47;;;27.50;99.90;;;;;;5115142;28;20149;-71
2022/05/23 12:58:45;;;;;;;7.32;2.90;;;27.20;99.90;;;;;;5114556;28;20188;-71
2022/05/23 13:01:16;;;;;;;4.20;2.70;;;27.00;99.90;;;;;;5114959;28;20157;-71
2022/05/23 13:04:17;;;;;;;5.38;2.45;;;27.10;99.90;;;;;;5096448;28;20260;-71
2022/05/23 13:06:58;;;;;;;4.03;2.40;;;27.20;99.90;;;;;;5114475;28;20663;-71
2022/05/23 13:09:39;;;;;;;3.55;2.20;;;27.00;99.90;;;;;;5114569;28;20283;-71
2022/05/23 13:12:09;;;;;;;3.42;2.40;;;26.90;99.90;;;;;;5095852;28;20208;-71
2022/05/23 13:14:59;;;;;;;3.25;2.40;;;26.60;99.90;;;;;;5096154;28;20622;-71
2022/05/23 13:17:40;;;;;;;6.20;3.00;;;26.30;99.90;;;;;;5114525;28;20617;-72
2022/05/23 13:23:16;;;;;;;5.80;2.80;;;26.20;99.90;;;;;;5114833;28;20523;-71
2022/05/23 13:25:43;;;;;;;4.57;2.60;;;26.10;99.90;;;;;;5114552;28;20156;-71
2022/05/23 13:28:12;;;;;;;4.20;2.47;;;26.00;99.90;;;;;;5113538;28;20192;-71
2022/05/23 13:30:43;;;;;;;4.40;3.22;;;25.80;99.90;;;;;;5113868;28;20176;-71
2022/05/23 13:33:19;;;;;;;6.78;2.78;;;25.70;99.90;;;;;;5114032;28;20184;-71
2022/05/23 13:35:46;;;;;;;7.45;3.90;;;25.50;99.90;;;;;;5114092;28;20172;-71
2022/05/23 13:38:18;;;;;;;4.78;2.92;;;25.20;99.90;;;;;;5114054;28;20196;-71
2022/05/23 13:40:47;;;;;;;5.38;3.10;;;25.10;99.90;;;;;;5114350;28;20164;-72
2022/05/23 13:43:23;;;;;;;3.63;2.47;;;25.00;99.90;;;;;;5095419;28;20199;-71
2022/05/23 13:45:59;;;;;;;6.45;2.85;;;24.90;99.90;;;;;;5095639;28;20221;-71
2022/05/23 13:48:35;;;;;;;4.20;2.75;;;24.70;99.90;;;;;;5114035;28;20180;-71
2022/05/23 13:51:06;;;;;;;4.32;2.67;;;24.50;99.90;;;;;;5113839;28;20227;-72
2022/05/23 13:53:45;;;;;;;4.03;2.97;;;24.20;99.90;;;;;;5114199;28;20149;-71
2022/05/23 13:56:13;;;;;;;6.93;3.05;;;24.00;99.90;;;;;;5095717;28;20175;-71
2022/05/23 13:59:04;;;;;;;4.93;2.85;;;24.00;99.90;;;;;;5095485;28;20283;-71
2022/05/23 14:01:42;;;;;;;6.50;2.90;;;23.90;99.90;;;;;;5114065;28;20200;-71
2022/05/23 14:04:11;;;;;;;7.03;3.55;;;23.90;99.90;;;;;;5095464;28;20187;-71
2022/05/23 14:06:43;;;;;;;7.68;3.20;;;23.80;99.90;;;;;;5113688;28;20176;-71
2022/05/23 14:09:12;;;;;;;7.75;3.38;;;23.80;99.90;;;;;;5113580;28;20202;-71
2022/05/23 14:11:46;;;;;;;7.47;3.50;;;23.60;99.90;;;;;;5113534;28;20240;-70